sensor_id;sensor_type;location;lat;lon;timestamp;temperature;humidity
36372;DHT22;22398;51.346;12.372;2022-08-01T00:02:56;20.90;95.90
36372;DHT22;22398;51.346;12.372;2022-08-01T00:08:01;21.00;96.00
36372;DHT22;22398;51.346;12.372;2022-08-01T00:13:04;21.00;96.10
36372;DHT22;22398;51.346;12.372;2022-08-01T00:18:08;21.00;96.00
36372;DHT22;22398;51.346;12.372;2022-08-01T00:23:13;21.00;96.20
36372;DHT22;22398;51.346;12.372;2022-08-01T00:28:16;20.90;96.30
36372;DHT22;22398;51.346;12.372;2022-08-01T00:33:19;21.00;96.50
36372;DHT22;22398;51.346;12.372;2022-08-01T00:38:24;21.10;96.60
36372;DHT22;22398;51.346;12.372;2022-08-01T00:43:28;21.10;96.60
36372;DHT22;22398;51.346;12.372;2022-08-01T00:48:32;21.20;96.60
36372;DHT22;22398;51.346;12.372;2022-08-01T00:53:36;21.10;96.60
36372;DHT22;22398;51.346;12.372;2022-08-01T00:58:53;21.00;96.70
36372;DHT22;22398;51.346;12.372;2022-08-01T01:03:57;21.00;96.80
36372;DHT22;22398;51.346;12.372;2022-08-01T01:09:14;20.90;96.70
36372;DHT22;22398;51.346;12.372;2022-08-01T01:14:21;20.90;96.80
36372;DHT22;22398;51.346;12.372;2022-08-01T01:19:27;20.90;96.90
36372;DHT22;22398;51.346;12.372;2022-08-01T01:24:36;21.00;96.90
36372;DHT22;22398;51.346;12.372;2022-08-01T01:29:44;21.00;96.90
36372;DHT22;22398;51.346;12.372;2022-08-01T01:35:02;21.00;96.80
36372;DHT22;22398;51.346;12.372;2022-08-01T01:40:07;21.00;96.70
36372;DHT22;22398;51.346;12.372;2022-08-01T01:45:12;21.00;96.70
36372;DHT22;22398;51.346;12.372;2022-08-01T01:50:15;21.00;96.60
36372;DHT22;22398;51.346;12.372;2022-08-01T01:55:20;21.00;96.60
36372;DHT22;22398;51.346;12.372;2022-08-01T02:00:26;21.00;96.60
36372;DHT22;22398;51.346;12.372;2022-08-01T02:05:31;21.00;96.60
36372;DHT22;22398;51.346;12.372;2022-08-01T02:10:36;21.00;96.50
36372;DHT22;22398;51.346;12.372;2022-08-01T02:15:41;21.00;96.50
36372;DHT22;22398;51.346;12.372;2022-08-01T02:21:01;20.80;96.40
36372;DHT22;22398;51.346;12.372;2022-08-01T02:26:07;20.60;96.60
36372;DHT22;22398;51.346;12.372;2022-08-01T02:31:15;20.50;96.80
36372;DHT22;22398;51.346;12.372;2022-08-01T02:36:19;20.50;97.00
36372;DHT22;22398;51.346;12.372;2022-08-01T02:41:33;20.50;97.20
36372;DHT22;22398;51.346;12.372;2022-08-01T02:46:38;20.40;97.30
36372;DHT22;22398;51.346;12.372;2022-08-01T02:51:44;20.30;97.50
36372;DHT22;22398;51.346;12.372;2022-08-01T02:56:49;20.20;97.50
36372;DHT22;22398;51.346;12.372;2022-08-01T03:01:55;20.30;97.80
36372;DHT22;22398;51.346;12.372;2022-08-01T03:07:01;20.30;97.90
36372;DHT22;22398;51.346;12.372;2022-08-01T03:12:06;20.30;98.10
36372;DHT22;22398;51.346;12.372;2022-08-01T03:17:13;20.30;98.20
36372;DHT22;22398;51.346;12.372;2022-08-01T03:22:18;20.30;98.50
36372;DHT22;22398;51.346;12.372;2022-08-01T03:27:23;20.40;98.70
36372;DHT22;22398;51.346;12.372;2022-08-01T03:32:29;20.30;99.00
36372;DHT22;22398;51.346;12.372;2022-08-01T03:37:34;20.20;99.60
36372;DHT22;22398;51.346;12.372;2022-08-01T03:42:39;20.10;99.90
36372;DHT22;22398;51.346;12.372;2022-08-01T03:47:49;20.10;99.90
36372;DHT22;22398;51.346;12.372;2022-08-01T03:52:56;20.20;99.90
36372;DHT22;22398;51.346;12.372;2022-08-01T03:58:00;20.30;99.90
36372;DHT22;22398;51.346;12.372;2022-08-01T04:03:12;20.40;99.90
36372;DHT22;22398;51.346;12.372;2022-08-01T04:08:15;20.30;99.90
36372;DHT22;22398;51.346;12.372;2022-08-01T04:13:19;20.20;99.90
36372;DHT22;22398;51.346;12.372;2022-08-01T04:18:24;20.20;99.90
36372;DHT22;22398;51.346;12.372;2022-08-01T04:23:27;20.20;99.90
36372;DHT22;22398;51.346;12.372;2022-08-01T04:28:34;20.20;99.90
36372;DHT22;22398;51.346;12.372;2022-08-01T04:33:40;20.30;99.90
36372;DHT22;22398;51.346;12.372;2022-08-01T04:38:45;20.30;99.90
36372;DHT22;22398;51.346;12.372;2022-08-01T04:43:49;20.30;99.90
36372;DHT22;22398;51.346;12.372;2022-08-01T04:48:55;20.20;99.90
36372;DHT22;22398;51.346;12.372;2022-08-01T04:53:58;20.10;99.90
36372;DHT22;22398;51.346;12.372;2022-08-01T04:59:03;20.10;99.90
36372;DHT22;22398;51.346;12.372;2022-08-01T05:04:40;20.10;99.90
36372;DHT22;22398;51.346;12.372;2022-08-01T05:09:43;20.20;99.90
36372;DHT22;22398;51.346;12.372;2022-08-01T05:14:47;20.30;99.90
36372;DHT22;22398;51.346;12.372;2022-08-01T05:19:52;20.50;99.90
36372;DHT22;22398;51.346;12.372;2022-08-01T05:24:55;20.90;99.90
36372;DHT22;22398;51.346;12.372;2022-08-01T05:30:00;21.20;99.90
36372;DHT22;22398;51.346;12.372;2022-08-01T05:35:05;21.30;99.90
36372;DHT22;22398;51.346;12.372;2022-08-01T05:40:09;21.30;99.90
36372;DHT22;22398;51.346;12.372;2022-08-01T05:45:13;21.60;99.90
36372;DHT22;22398;51.346;12.372;2022-08-01T05:50:18;22.00;99.90
36372;DHT22;22398;51.346;12.372;2022-08-01T05:55:21;22.30;99.90
36372;DHT22;22398;51.346;12.372;2022-08-01T06:00:25;22.50;99.90
36372;DHT22;22398;51.346;12.372;2022-08-01T06:05:29;22.80;99.90
36372;DHT22;22398;51.346;12.372;2022-08-01T06:10:33;22.90;99.90
36372;DHT22;22398;51.346;12.372;2022-08-01T06:15:36;22.80;99.90
36372;DHT22;22398;51.346;12.372;2022-08-01T06:20:41;23.00;99.90
36372;DHT22;22398;51.346;12.372;2022-08-01T06:25:44;22.90;99.90
36372;DHT22;22398;51.346;12.372;2022-08-01T06:30:48;22.80;99.90
36372;DHT22;22398;51.346;12.372;2022-08-01T06:35:53;22.60;99.90
36372;DHT22;22398;51.346;12.372;2022-08-01T06:40:57;22.50;99.90
36372;DHT22;22398;51.346;12.372;2022-08-01T06:46:00;22.80;99.90
36372;DHT22;22398;51.346;12.372;2022-08-01T06:51:05;22.80;99.90
36372;DHT22;22398;51.346;12.372;2022-08-01T06:56:15;22.90;99.90
36372;DHT22;22398;51.346;12.372;2022-08-01T07:01:18;22.90;99.90
36372;DHT22;22398;51.346;12.372;2022-08-01T07:06:24;23.00;99.90
36372;DHT22;22398;51.346;12.372;2022-08-01T07:11:27;22.90;99.90
36372;DHT22;22398;51.346;12.372;2022-08-01T07:16:31;23.20;99.90
36372;DHT22;22398;51.346;12.372;2022-08-01T07:21:35;23.30;99.90
36372;DHT22;22398;51.346;12.372;2022-08-01T07:26:45;23.50;99.90
36372;DHT22;22398;51.346;12.372;2022-08-01T07:31:56;23.80;99.90
36372;DHT22;22398;51.346;12.372;2022-08-01T07:37:01;24.50;99.30
36372;DHT22;22398;51.346;12.372;2022-08-01T07:42:05;24.80;98.50
36372;DHT22;22398;51.346;12.372;2022-08-01T07:47:09;24.60;97.60
36372;DHT22;22398;51.346;12.372;2022-08-01T07:52:14;23.80;97.70
36372;DHT22;22398;51.346;12.372;2022-08-01T07:57:18;22.50;99.10
36372;DHT22;22398;51.346;12.372;2022-08-01T08:02:21;20.90;99.90
36372;DHT22;22398;51.346;12.372;2022-08-01T08:07:26;20.50;99.90
36372;DHT22;22398;51.346;12.372;2022-08-01T08:12:30;20.60;99.90
36372;DHT22;22398;51.346;12.372;2022-08-01T08:17:33;21.20;99.90
36372;DHT22;22398;51.346;12.372;2022-08-01T08:22:39;21.30;99.90
36372;DHT22;22398;51.346;12.372;2022-08-01T08:27:42;21.40;99.90
36372;DHT22;22398;51.346;12.372;2022-08-01T08:32:46;21.70;99.90
36372;DHT22;22398;51.346;12.372;2022-08-01T08:37:50;22.40;99.90
36372;DHT22;22398;51.346;12.372;2022-08-01T08:42:59;22.40;99.90
36372;DHT22;22398;51.346;12.372;2022-08-01T08:48:03;22.50;99.90
36372;DHT22;22398;51.346;12.372;2022-08-01T08:53:10;22.60;99.90
36372;DHT22;22398;51.346;12.372;2022-08-01T08:58:20;22.90;99.90
36372;DHT22;22398;51.346;12.372;2022-08-01T09:03:32;23.30;99.90
36372;DHT22;22398;51.346;12.372;2022-08-01T09:08:37;23.60;99.90
36372;DHT22;22398;51.346;12.372;2022-08-01T09:13:41;24.10;99.90
36372;DHT22;22398;51.346;12.372;2022-08-01T09:18:46;24.10;99.90
36372;DHT22;22398;51.346;12.372;2022-08-01T09:23:56;23.30;99.90
36372;DHT22;22398;51.346;12.372;2022-08-01T09:29:02;23.70;99.90
36372;DHT22;22398;51.346;12.372;2022-08-01T09:34:09;24.00;99.90
36372;DHT22;22398;51.346;12.372;2022-08-01T09:39:16;24.30;99.90
36372;DHT22;22398;51.346;12.372;2022-08-01T09:44:28;24.50;99.90
36372;DHT22;22398;51.346;12.372;2022-08-01T09:49:44;24.50;99.90
36372;DHT22;22398;51.346;12.372;2022-08-01T09:54:54;23.90;99.40
36372;DHT22;22398;51.346;12.372;2022-08-01T09:59:58;25.00;98.60
36372;DHT22;22398;51.346;12.372;2022-08-01T10:05:12;25.00;97.70
36372;DHT22;22398;51.346;12.372;2022-08-01T10:10:24;25.10;97.10
36372;DHT22;22398;51.346;12.372;2022-08-01T10:15:30;24.70;96.10
36372;DHT22;22398;51.346;12.372;2022-08-01T10:20:39;24.70;96.20
36372;DHT22;22398;51.346;12.372;2022-08-01T10:25:45;25.10;95.40
36372;DHT22;22398;51.346;12.372;2022-08-01T10:30:48;25.10;93.80
36372;DHT22;22398;51.346;12.372;2022-08-01T10:35:53;25.00;93.20
36372;DHT22;22398;51.346;12.372;2022-08-01T10:40:58;25.00;93.20
36372;DHT22;22398;51.346;12.372;2022-08-01T10:46:07;25.30;92.30
36372;DHT22;22398;51.346;12.372;2022-08-01T10:51:11;25.80;91.60
36372;DHT22;22398;51.346;12.372;2022-08-01T10:56:22;26.20;91.10
36372;DHT22;22398;51.346;12.372;2022-08-01T11:01:29;26.20;90.80
36372;DHT22;22398;51.346;12.372;2022-08-01T11:06:47;26.30;89.60
36372;DHT22;22398;51.346;12.372;2022-08-01T11:12:03;26.10;89.60
36372;DHT22;22398;51.346;12.372;2022-08-01T11:17:30;25.60;89.10
36372;DHT22;22398;51.346;12.372;2022-08-01T11:28:19;26.00;88.00
36372;DHT22;22398;51.346;12.372;2022-08-01T11:33:47;26.40;86.30
36372;DHT22;22398;51.346;12.372;2022-08-01T11:39:12;26.40;85.70
36372;DHT22;22398;51.346;12.372;2022-08-01T11:44:18;26.50;85.50
36372;DHT22;22398;51.346;12.372;2022-08-01T11:49:27;26.50;84.80
36372;DHT22;22398;51.346;12.372;2022-08-01T11:54:32;26.50;84.20
36372;DHT22;22398;51.346;12.372;2022-08-01T11:59:40;27.10;83.10
36372;DHT22;22398;51.346;12.372;2022-08-01T12:10:20;26.30;85.40
36372;DHT22;22398;51.346;12.372;2022-08-01T12:15:33;26.00;86.50
36372;DHT22;22398;51.346;12.372;2022-08-01T12:20:38;26.20;86.60
36372;DHT22;22398;51.346;12.372;2022-08-01T12:25:57;26.20;85.60
36372;DHT22;22398;51.346;12.372;2022-08-01T12:31:03;26.20;85.90
36372;DHT22;22398;51.346;12.372;2022-08-01T12:36:07;25.90;85.70
36372;DHT22;22398;51.346;12.372;2022-08-01T12:41:15;26.10;85.20
36372;DHT22;22398;51.346;12.372;2022-08-01T12:46:21;26.50;84.30
36372;DHT22;22398;51.346;12.372;2022-08-01T12:51:28;26.50;84.60
36372;DHT22;22398;51.346;12.372;2022-08-01T12:56:32;26.30;83.00
36372;DHT22;22398;51.346;12.372;2022-08-01T13:01:37;26.20;83.30
36372;DHT22;22398;51.346;12.372;2022-08-01T13:06:42;26.10;83.50
36372;DHT22;22398;51.346;12.372;2022-08-01T13:11:46;26.10;83.30
36372;DHT22;22398;51.346;12.372;2022-08-01T13:17:06;26.60;82.60
36372;DHT22;22398;51.346;12.372;2022-08-01T13:22:15;26.70;82.90
36372;DHT22;22398;51.346;12.372;2022-08-01T13:27:21;26.50;82.00
36372;DHT22;22398;51.346;12.372;2022-08-01T13:32:28;26.40;82.50
36372;DHT22;22398;51.346;12.372;2022-08-01T13:37:33;26.40;82.40
36372;DHT22;22398;51.346;12.372;2022-08-01T13:42:39;26.60;81.90
36372;DHT22;22398;51.346;12.372;2022-08-01T13:47:45;26.40;81.20
36372;DHT22;22398;51.346;12.372;2022-08-01T13:53:09;26.30;81.50
36372;DHT22;22398;51.346;12.372;2022-08-01T13:58:13;26.50;81.20
36372;DHT22;22398;51.346;12.372;2022-08-01T14:03:18;26.20;81.70
36372;DHT22;22398;51.346;12.372;2022-08-01T14:08:34;26.00;80.90
36372;DHT22;22398;51.346;12.372;2022-08-01T14:13:38;26.40;79.90
36372;DHT22;22398;51.346;12.372;2022-08-01T14:18:49;26.50;79.40
36372;DHT22;22398;51.346;12.372;2022-08-01T14:23:53;26.60;78.80
36372;DHT22;22398;51.346;12.372;2022-08-01T14:28:56;26.30;78.80
36372;DHT22;22398;51.346;12.372;2022-08-01T14:34:01;26.40;79.20
36372;DHT22;22398;51.346;12.372;2022-08-01T14:39:04;26.40;79.40
36372;DHT22;22398;51.346;12.372;2022-08-01T14:44:15;26.40;79.10
36372;DHT22;22398;51.346;12.372;2022-08-01T14:49:20;26.10;78.10
36372;DHT22;22398;51.346;12.372;2022-08-01T14:54:24;26.10;78.50
36372;DHT22;22398;51.346;12.372;2022-08-01T14:59:30;25.90;78.20
36372;DHT22;22398;51.346;12.372;2022-08-01T15:04:35;25.80;77.90
36372;DHT22;22398;51.346;12.372;2022-08-01T15:09:38;25.60;78.00
36372;DHT22;22398;51.346;12.372;2022-08-01T15:14:42;25.70;78.20
36372;DHT22;22398;51.346;12.372;2022-08-01T15:19:53;25.90;78.10
36372;DHT22;22398;51.346;12.372;2022-08-01T15:24:57;26.00;78.30
36372;DHT22;22398;51.346;12.372;2022-08-01T15:30:02;26.10;78.20
36372;DHT22;22398;51.346;12.372;2022-08-01T15:35:07;25.90;78.50
36372;DHT22;22398;51.346;12.372;2022-08-01T15:40:12;26.00;78.70
36372;DHT22;22398;51.346;12.372;2022-08-01T15:45:15;26.10;78.50
36372;DHT22;22398;51.346;12.372;2022-08-01T15:50:42;25.90;78.30
36372;DHT22;22398;51.346;12.372;2022-08-01T15:55:46;25.90;78.20
36372;DHT22;22398;51.346;12.372;2022-08-01T16:00:53;25.90;77.90
36372;DHT22;22398;51.346;12.372;2022-08-01T16:05:58;25.90;78.00
36372;DHT22;22398;51.346;12.372;2022-08-01T16:11:02;26.00;77.90
36372;DHT22;22398;51.346;12.372;2022-08-01T16:16:06;25.90;77.80
36372;DHT22;22398;51.346;12.372;2022-08-01T16:21:11;25.90;77.70
36372;DHT22;22398;51.346;12.372;2022-08-01T16:26:15;25.80;77.20
36372;DHT22;22398;51.346;12.372;2022-08-01T16:31:29;25.70;76.80
36372;DHT22;22398;51.346;12.372;2022-08-01T16:36:54;25.70;77.10
36372;DHT22;22398;51.346;12.372;2022-08-01T16:41:58;26.20;76.80
36372;DHT22;22398;51.346;12.372;2022-08-01T16:47:02;26.50;75.70
36372;DHT22;22398;51.346;12.372;2022-08-01T16:52:08;26.70;75.30
36372;DHT22;22398;51.346;12.372;2022-08-01T16:57:11;26.60;74.90
36372;DHT22;22398;51.346;12.372;2022-08-01T17:02:15;26.40;75.00
36372;DHT22;22398;51.346;12.372;2022-08-01T17:07:20;25.90;75.10
36372;DHT22;22398;51.346;12.372;2022-08-01T17:12:24;25.80;75.50
36372;DHT22;22398;51.346;12.372;2022-08-01T17:17:27;25.60;75.50
36372;DHT22;22398;51.346;12.372;2022-08-01T17:22:32;25.60;76.00
36372;DHT22;22398;51.346;12.372;2022-08-01T17:27:35;25.70;76.40
36372;DHT22;22398;51.346;12.372;2022-08-01T17:32:39;25.60;76.60
36372;DHT22;22398;51.346;12.372;2022-08-01T17:37:47;25.30;76.70
36372;DHT22;22398;51.346;12.372;2022-08-01T17:42:51;25.20;77.40
36372;DHT22;22398;51.346;12.372;2022-08-01T17:47:54;25.00;77.80
36372;DHT22;22398;51.346;12.372;2022-08-01T17:52:59;24.90;77.90
36372;DHT22;22398;51.346;12.372;2022-08-01T17:58:03;24.60;78.40
36372;DHT22;22398;51.346;12.372;2022-08-01T18:03:07;24.30;79.10
36372;DHT22;22398;51.346;12.372;2022-08-01T18:08:12;24.10;79.70
36372;DHT22;22398;51.346;12.372;2022-08-01T18:13:19;24.10;80.20
36372;DHT22;22398;51.346;12.372;2022-08-01T18:18:22;24.00;80.40
36372;DHT22;22398;51.346;12.372;2022-08-01T18:23:35;24.00;80.70
36372;DHT22;22398;51.346;12.372;2022-08-01T18:28:38;23.80;81.00
36372;DHT22;22398;51.346;12.372;2022-08-01T18:33:47;23.60;81.50
36372;DHT22;22398;51.346;12.372;2022-08-01T18:38:52;23.40;82.10
36372;DHT22;22398;51.346;12.372;2022-08-01T18:43:57;23.20;82.70
36372;DHT22;22398;51.346;12.372;2022-08-01T18:49:07;23.10;83.20
36372;DHT22;22398;51.346;12.372;2022-08-01T18:54:13;22.90;83.80
36372;DHT22;22398;51.346;12.372;2022-08-01T18:59:17;22.70;84.40
36372;DHT22;22398;51.346;12.372;2022-08-01T19:04:21;22.60;85.00
36372;DHT22;22398;51.346;12.372;2022-08-01T19:09:26;22.50;85.50
36372;DHT22;22398;51.346;12.372;2022-08-01T19:14:29;22.30;86.10
36372;DHT22;22398;51.346;12.372;2022-08-01T19:19:33;22.20;86.80
36372;DHT22;22398;51.346;12.372;2022-08-01T19:24:42;22.00;87.20
36372;DHT22;22398;51.346;12.372;2022-08-01T19:29:50;22.30;88.30
36372;DHT22;22398;51.346;12.372;2022-08-01T19:34:57;21.60;88.10
36372;DHT22;22398;51.346;12.372;2022-08-01T19:40:05;21.50;88.70
36372;DHT22;22398;51.346;12.372;2022-08-01T19:45:09;21.40;89.30
36372;DHT22;22398;51.346;12.372;2022-08-01T19:50:12;21.20;89.90
36372;DHT22;22398;51.346;12.372;2022-08-01T19:55:17;21.10;90.30
36372;DHT22;22398;51.346;12.372;2022-08-01T20:00:21;21.10;90.70
36372;DHT22;22398;51.346;12.372;2022-08-01T20:05:29;21.10;91.00
36372;DHT22;22398;51.346;12.372;2022-08-01T20:10:34;21.10;91.30
36372;DHT22;22398;51.346;12.372;2022-08-01T20:15:39;20.90;91.50
36372;DHT22;22398;51.346;12.372;2022-08-01T20:20:45;20.80;91.80
36372;DHT22;22398;51.346;12.372;2022-08-01T20:25:51;20.80;92.20
36372;DHT22;22398;51.346;12.372;2022-08-01T20:30:59;20.80;92.40
36372;DHT22;22398;51.346;12.372;2022-08-01T20:36:07;20.90;92.60
36372;DHT22;22398;51.346;12.372;2022-08-01T20:41:27;20.90;92.60
36372;DHT22;22398;51.346;12.372;2022-08-01T20:46:31;20.80;92.70
36372;DHT22;22398;51.346;12.372;2022-08-01T20:51:35;20.70;92.80
36372;DHT22;22398;51.346;12.372;2022-08-01T20:56:48;20.60;93.00
36372;DHT22;22398;51.346;12.372;2022-08-01T21:01:54;20.50;93.20
36372;DHT22;22398;51.346;12.372;2022-08-01T21:07:01;20.30;93.40
36372;DHT22;22398;51.346;12.372;2022-08-01T21:12:07;20.40;93.70
36372;DHT22;22398;51.346;12.372;2022-08-01T21:17:15;20.10;93.80
36372;DHT22;22398;51.346;12.372;2022-08-01T21:22:20;19.90;94.10
36372;DHT22;22398;51.346;12.372;2022-08-01T21:45:16;19.60;95.20
36372;DHT22;22398;51.346;12.372;2022-08-01T21:50:20;19.60;95.50
36372;DHT22;22398;51.346;12.372;2022-08-01T21:55:27;19.50;95.70
36372;DHT22;22398;51.346;12.372;2022-08-01T22:01:42;19.30;96.00
36372;DHT22;22398;51.346;12.372;2022-08-01T22:07:25;19.20;96.40
36372;DHT22;22398;51.346;12.372;2022-08-01T22:13:14;19.00;96.70
36372;DHT22;22398;51.346;12.372;2022-08-01T22:18:24;18.90;97.10
36372;DHT22;22398;51.346;12.372;2022-08-01T22:23:34;18.80;97.60
36372;DHT22;22398;51.346;12.372;2022-08-01T22:29:04;18.90;97.90
36372;DHT22;22398;51.346;12.372;2022-08-01T22:34:17;18.90;97.80
36372;DHT22;22398;51.346;12.372;2022-08-01T22:39:26;18.90;98.00
36372;DHT22;22398;51.346;12.372;2022-08-01T22:45:10;19.10;98.30
36372;DHT22;22398;51.346;12.372;2022-08-01T23:03:10;17.70;97.60
36372;DHT22;22398;51.346;12.372;2022-08-01T23:09:28;19.90;98.10
36372;DHT22;22398;51.346;12.372;2022-08-01T23:15:04;19.50;97.70
36372;DHT22;22398;51.346;12.372;2022-08-01T23:20:09;19.60;97.60
36372;DHT22;22398;51.346;12.372;2022-08-01T23:25:13;19.60;97.50
36372;DHT22;22398;51.346;12.372;2022-08-01T23:30:18;19.60;97.40
36372;DHT22;22398;51.346;12.372;2022-08-01T23:35:21;19.70;97.30
36372;DHT22;22398;51.346;12.372;2022-08-01T23:40:25;19.70;97.10
36372;DHT22;22398;51.346;12.372;2022-08-01T23:45:30;19.70;97.10
36372;DHT22;22398;51.346;12.372;2022-08-01T23:50:54;19.70;97.00
36372;DHT22;22398;51.346;12.372;2022-08-01T23:55:58;19.70;96.90
